sensor_id;sensor_type;location;lat;lon;timestamp;P1;durP1;ratioP1;P2;durP2;ratioP2
11998;SDS011;40817;51.520;9.954;2023-05-07T00:00:37;25.15;;;17.02;;
11998;SDS011;40817;51.520;9.954;2023-05-07T00:03:06;26.55;;;17.52;;
11998;SDS011;40817;51.520;9.954;2023-05-07T00:05:33;24.67;;;16.60;;
11998;SDS011;40817;51.520;9.954;2023-05-07T00:08:01;24.92;;;17.70;;
11998;SDS011;40817;51.520;9.954;2023-05-07T00:10:30;23.55;;;16.88;;
11998;SDS011;40817;51.520;9.954;2023-05-07T00:12:59;23.42;;;16.58;;
11998;SDS011;40817;51.520;9.954;2023-05-07T00:15:26;25.50;;;17.85;;
11998;SDS011;40817;51.520;9.954;2023-05-07T00:17:54;24.52;;;16.83;;
11998;SDS011;40817;51.520;9.954;2023-05-07T00:20:24;26.65;;;17.02;;
11998;SDS011;40817;51.520;9.954;2023-05-07T00:22:52;25.58;;;18.52;;
11998;SDS011;40817;51.520;9.954;2023-05-07T00:25:20;26.40;;;18.52;;
11998;SDS011;40817;51.520;9.954;2023-05-07T00:27:48;32.17;;;19.23;;
11998;SDS011;40817;51.520;9.954;2023-05-07T00:30:17;28.55;;;19.48;;
11998;SDS011;40817;51.520;9.954;2023-05-07T00:32:45;29.27;;;19.75;;
11998;SDS011;40817;51.520;9.954;2023-05-07T00:35:14;27.83;;;19.02;;
11998;SDS011;40817;51.520;9.954;2023-05-07T00:37:42;31.73;;;19.50;;
11998;SDS011;40817;51.520;9.954;2023-05-07T00:40:10;29.90;;;19.05;;
11998;SDS011;40817;51.520;9.954;2023-05-07T00:42:38;25.88;;;18.27;;
11998;SDS011;40817;51.520;9.954;2023-05-07T00:45:06;27.38;;;19.33;;
11998;SDS011;40817;51.520;9.954;2023-05-07T00:47:37;29.25;;;17.95;;
11998;SDS011;40817;51.520;9.954;2023-05-07T00:50:06;26.20;;;18.23;;
11998;SDS011;40817;51.520;9.954;2023-05-07T00:52:37;24.95;;;18.58;;
11998;SDS011;40817;51.520;9.954;2023-05-07T00:55:07;24.75;;;18.65;;
11998;SDS011;40817;51.520;9.954;2023-05-07T00:57:36;27.23;;;17.48;;
11998;SDS011;40817;51.520;9.954;2023-05-07T01:00:06;27.63;;;16.98;;
11998;SDS011;40817;51.520;9.954;2023-05-07T01:02:39;25.35;;;16.95;;
11998;SDS011;40817;51.520;9.954;2023-05-07T01:05:08;24.75;;;17.20;;
11998;SDS011;40817;51.520;9.954;2023-05-07T01:07:40;25.42;;;17.23;;
11998;SDS011;40817;51.520;9.954;2023-05-07T01:10:09;28.00;;;17.80;;
11998;SDS011;40817;51.520;9.954;2023-05-07T01:12:38;27.42;;;18.63;;
11998;SDS011;40817;51.520;9.954;2023-05-07T01:15:08;24.92;;;16.77;;
11998;SDS011;40817;51.520;9.954;2023-05-07T01:17:41;26.48;;;17.50;;
11998;SDS011;40817;51.520;9.954;2023-05-07T01:20:09;28.30;;;17.23;;
11998;SDS011;40817;51.520;9.954;2023-05-07T01:22:40;24.17;;;17.67;;
11998;SDS011;40817;51.520;9.954;2023-05-07T01:25:11;25.05;;;16.92;;
11998;SDS011;40817;51.520;9.954;2023-05-07T01:27:39;28.23;;;17.95;;
11998;SDS011;40817;51.520;9.954;2023-05-07T01:30:07;25.27;;;17.38;;
11998;SDS011;40817;51.520;9.954;2023-05-07T01:32:38;27.77;;;18.33;;
11998;SDS011;40817;51.520;9.954;2023-05-07T01:35:10;26.20;;;17.48;;
11998;SDS011;40817;51.520;9.954;2023-05-07T01:37:43;24.80;;;16.23;;
11998;SDS011;40817;51.520;9.954;2023-05-07T01:40:13;29.50;;;19.33;;
11998;SDS011;40817;51.520;9.954;2023-05-07T01:42:42;23.98;;;16.95;;
11998;SDS011;40817;51.520;9.954;2023-05-07T01:45:10;23.80;;;16.38;;
11998;SDS011;40817;51.520;9.954;2023-05-07T01:47:38;26.98;;;17.50;;
11998;SDS011;40817;51.520;9.954;2023-05-07T01:50:06;31.13;;;17.67;;
11998;SDS011;40817;51.520;9.954;2023-05-07T01:52:36;25.33;;;17.50;;
11998;SDS011;40817;51.520;9.954;2023-05-07T01:55:07;24.23;;;17.33;;
11998;SDS011;40817;51.520;9.954;2023-05-07T01:57:35;26.40;;;17.50;;
11998;SDS011;40817;51.520;9.954;2023-05-07T02:00:03;27.70;;;17.10;;
11998;SDS011;40817;51.520;9.954;2023-05-07T02:02:34;25.75;;;16.35;;
11998;SDS011;40817;51.520;9.954;2023-05-07T02:05:03;24.08;;;16.02;;
11998;SDS011;40817;51.520;9.954;2023-05-07T02:07:32;25.33;;;17.10;;
11998;SDS011;40817;51.520;9.954;2023-05-07T02:10:00;26.38;;;18.48;;
11998;SDS011;40817;51.520;9.954;2023-05-07T02:12:30;24.30;;;16.75;;
11998;SDS011;40817;51.520;9.954;2023-05-07T02:14:57;24.55;;;16.88;;
11998;SDS011;40817;51.520;9.954;2023-05-07T02:17:25;26.05;;;16.85;;
11998;SDS011;40817;51.520;9.954;2023-05-07T02:19:53;25.33;;;16.98;;
11998;SDS011;40817;51.520;9.954;2023-05-07T02:22:21;23.55;;;15.75;;
11998;SDS011;40817;51.520;9.954;2023-05-07T02:24:49;26.05;;;16.65;;
11998;SDS011;40817;51.520;9.954;2023-05-07T02:27:16;23.92;;;15.68;;
11998;SDS011;40817;51.520;9.954;2023-05-07T02:29:45;23.40;;;14.73;;
11998;SDS011;40817;51.520;9.954;2023-05-07T02:32:13;21.45;;;14.73;;
11998;SDS011;40817;51.520;9.954;2023-05-07T02:34:40;20.13;;;14.63;;
11998;SDS011;40817;51.520;9.954;2023-05-07T02:37:08;21.40;;;15.15;;
11998;SDS011;40817;51.520;9.954;2023-05-07T02:39:38;18.88;;;14.05;;
11998;SDS011;40817;51.520;9.954;2023-05-07T02:42:06;24.05;;;15.18;;
11998;SDS011;40817;51.520;9.954;2023-05-07T02:44:34;21.30;;;14.18;;
11998;SDS011;40817;51.520;9.954;2023-05-07T02:47:03;20.50;;;14.90;;
11998;SDS011;40817;51.520;9.954;2023-05-07T02:49:33;20.00;;;14.73;;
11998;SDS011;40817;51.520;9.954;2023-05-07T02:52:01;20.27;;;14.18;;
11998;SDS011;40817;51.520;9.954;2023-05-07T02:54:28;22.23;;;15.88;;
11998;SDS011;40817;51.520;9.954;2023-05-07T02:56:56;19.30;;;14.48;;
11998;SDS011;40817;51.520;9.954;2023-05-07T02:59:26;21.63;;;13.52;;
11998;SDS011;40817;51.520;9.954;2023-05-07T03:01:54;20.85;;;14.40;;
11998;SDS011;40817;51.520;9.954;2023-05-07T03:04:42;23.67;;;14.52;;
11998;SDS011;40817;51.520;9.954;2023-05-07T03:07:30;20.13;;;14.55;;
11998;SDS011;40817;51.520;9.954;2023-05-07T03:10:17;23.63;;;14.98;;
11998;SDS011;40817;51.520;9.954;2023-05-07T03:12:47;21.10;;;14.27;;
11998;SDS011;40817;51.520;9.954;2023-05-07T03:15:15;20.70;;;14.35;;
11998;SDS011;40817;51.520;9.954;2023-05-07T03:17:42;19.67;;;13.45;;
11998;SDS011;40817;51.520;9.954;2023-05-07T03:20:11;22.77;;;14.40;;
11998;SDS011;40817;51.520;9.954;2023-05-07T03:22:39;19.27;;;13.88;;
11998;SDS011;40817;51.520;9.954;2023-05-07T03:25:08;21.38;;;13.85;;
11998;SDS011;40817;51.520;9.954;2023-05-07T03:27:36;18.42;;;13.05;;
11998;SDS011;40817;51.520;9.954;2023-05-07T03:30:04;19.50;;;14.60;;
11998;SDS011;40817;51.520;9.954;2023-05-07T03:32:34;21.05;;;14.70;;
11998;SDS011;40817;51.520;9.954;2023-05-07T03:35:02;19.20;;;14.02;;
11998;SDS011;40817;51.520;9.954;2023-05-07T03:37:31;20.77;;;13.90;;
11998;SDS011;40817;51.520;9.954;2023-05-07T03:39:59;21.60;;;14.73;;
11998;SDS011;40817;51.520;9.954;2023-05-07T03:42:28;19.85;;;14.13;;
11998;SDS011;40817;51.520;9.954;2023-05-07T03:44:55;20.80;;;14.38;;
11998;SDS011;40817;51.520;9.954;2023-05-07T03:47:23;23.83;;;14.35;;
11998;SDS011;40817;51.520;9.954;2023-05-07T03:49:51;22.92;;;14.13;;
11998;SDS011;40817;51.520;9.954;2023-05-07T03:52:20;19.20;;;13.70;;
11998;SDS011;40817;51.520;9.954;2023-05-07T03:54:52;19.73;;;14.45;;
11998;SDS011;40817;51.520;9.954;2023-05-07T03:57:20;21.90;;;14.40;;
11998;SDS011;40817;51.520;9.954;2023-05-07T03:59:48;18.75;;;14.07;;
11998;SDS011;40817;51.520;9.954;2023-05-07T04:02:15;18.92;;;13.30;;
11998;SDS011;40817;51.520;9.954;2023-05-07T04:04:43;21.42;;;13.85;;
11998;SDS011;40817;51.520;9.954;2023-05-07T04:07:11;18.85;;;13.55;;
11998;SDS011;40817;51.520;9.954;2023-05-07T04:09:38;19.50;;;13.27;;
11998;SDS011;40817;51.520;9.954;2023-05-07T04:12:07;17.00;;;12.40;;
11998;SDS011;40817;51.520;9.954;2023-05-07T04:14:35;18.98;;;13.43;;
11998;SDS011;40817;51.520;9.954;2023-05-07T04:17:02;18.05;;;12.73;;
11998;SDS011;40817;51.520;9.954;2023-05-07T04:19:32;16.13;;;11.82;;
11998;SDS011;40817;51.520;9.954;2023-05-07T04:22:00;17.25;;;12.18;;
11998;SDS011;40817;51.520;9.954;2023-05-07T04:24:30;19.77;;;12.68;;
11998;SDS011;40817;51.520;9.954;2023-05-07T04:26:59;17.48;;;12.48;;
11998;SDS011;40817;51.520;9.954;2023-05-07T04:29:28;17.23;;;12.25;;
11998;SDS011;40817;51.520;9.954;2023-05-07T04:31:55;20.75;;;11.75;;
11998;SDS011;40817;51.520;9.954;2023-05-07T04:34:24;17.45;;;12.52;;
11998;SDS011;40817;51.520;9.954;2023-05-07T04:36:51;16.23;;;11.68;;
11998;SDS011;40817;51.520;9.954;2023-05-07T04:39:19;20.35;;;13.05;;
11998;SDS011;40817;51.520;9.954;2023-05-07T04:41:46;18.73;;;12.43;;
11998;SDS011;40817;51.520;9.954;2023-05-07T04:44:14;18.60;;;12.23;;
11998;SDS011;40817;51.520;9.954;2023-05-07T04:46:43;18.30;;;11.70;;
11998;SDS011;40817;51.520;9.954;2023-05-07T04:49:10;18.00;;;12.15;;
11998;SDS011;40817;51.520;9.954;2023-05-07T04:51:38;18.75;;;11.35;;
11998;SDS011;40817;51.520;9.954;2023-05-07T04:54:08;17.48;;;11.15;;
11998;SDS011;40817;51.520;9.954;2023-05-07T04:56:35;18.17;;;11.75;;
11998;SDS011;40817;51.520;9.954;2023-05-07T04:59:03;17.70;;;11.60;;
11998;SDS011;40817;51.520;9.954;2023-05-07T05:01:30;20.00;;;11.80;;
11998;SDS011;40817;51.520;9.954;2023-05-07T05:04:00;19.20;;;11.60;;
11998;SDS011;40817;51.520;9.954;2023-05-07T05:06:27;20.58;;;12.52;;
11998;SDS011;40817;51.520;9.954;2023-05-07T05:08:55;19.52;;;12.07;;
11998;SDS011;40817;51.520;9.954;2023-05-07T05:11:23;17.92;;;11.52;;
11998;SDS011;40817;51.520;9.954;2023-05-07T05:13:51;18.05;;;11.68;;
11998;SDS011;40817;51.520;9.954;2023-05-07T05:16:18;19.67;;;11.93;;
11998;SDS011;40817;51.520;9.954;2023-05-07T05:18:46;18.60;;;11.23;;
11998;SDS011;40817;51.520;9.954;2023-05-07T05:21:15;19.27;;;11.75;;
11998;SDS011;40817;51.520;9.954;2023-05-07T05:23:42;19.35;;;12.20;;
11998;SDS011;40817;51.520;9.954;2023-05-07T05:26:10;19.70;;;12.63;;
11998;SDS011;40817;51.520;9.954;2023-05-07T05:28:37;17.88;;;12.20;;
11998;SDS011;40817;51.520;9.954;2023-05-07T05:31:05;18.98;;;12.13;;
11998;SDS011;40817;51.520;9.954;2023-05-07T05:33:32;21.55;;;12.48;;
11998;SDS011;40817;51.520;9.954;2023-05-07T05:36:00;19.30;;;12.32;;
11998;SDS011;40817;51.520;9.954;2023-05-07T05:38:29;20.80;;;12.00;;
11998;SDS011;40817;51.520;9.954;2023-05-07T05:40:56;22.38;;;12.82;;
11998;SDS011;40817;51.520;9.954;2023-05-07T05:43:24;19.75;;;12.80;;
11998;SDS011;40817;51.520;9.954;2023-05-07T05:45:51;18.48;;;11.90;;
11998;SDS011;40817;51.520;9.954;2023-05-07T05:48:19;20.08;;;12.20;;
11998;SDS011;40817;51.520;9.954;2023-05-07T05:50:46;21.85;;;12.73;;
11998;SDS011;40817;51.520;9.954;2023-05-07T05:53:14;20.67;;;12.23;;
11998;SDS011;40817;51.520;9.954;2023-05-07T05:55:43;21.83;;;13.27;;
11998;SDS011;40817;51.520;9.954;2023-05-07T05:58:11;20.30;;;12.13;;
11998;SDS011;40817;51.520;9.954;2023-05-07T06:00:38;20.20;;;12.68;;
11998;SDS011;40817;51.520;9.954;2023-05-07T06:03:06;20.88;;;12.55;;
11998;SDS011;40817;51.520;9.954;2023-05-07T06:05:33;16.67;;;11.20;;
11998;SDS011;40817;51.520;9.954;2023-05-07T06:08:01;18.58;;;11.70;;
11998;SDS011;40817;51.520;9.954;2023-05-07T06:10:28;17.15;;;11.25;;
11998;SDS011;40817;51.520;9.954;2023-05-07T06:12:58;18.83;;;11.57;;
11998;SDS011;40817;51.520;9.954;2023-05-07T06:15:25;18.23;;;11.18;;
11998;SDS011;40817;51.520;9.954;2023-05-07T06:17:53;20.98;;;12.73;;
11998;SDS011;40817;51.520;9.954;2023-05-07T06:20:22;17.95;;;11.60;;
11998;SDS011;40817;51.520;9.954;2023-05-07T06:22:49;16.35;;;11.10;;
11998;SDS011;40817;51.520;9.954;2023-05-07T06:25:17;17.75;;;11.98;;
11998;SDS011;40817;51.520;9.954;2023-05-07T06:27:45;16.80;;;10.85;;
11998;SDS011;40817;51.520;9.954;2023-05-07T06:30:14;16.52;;;11.25;;
11998;SDS011;40817;51.520;9.954;2023-05-07T06:32:41;18.13;;;11.35;;
11998;SDS011;40817;51.520;9.954;2023-05-07T06:35:09;14.95;;;10.38;;
11998;SDS011;40817;51.520;9.954;2023-05-07T06:37:37;15.93;;;11.15;;
11998;SDS011;40817;51.520;9.954;2023-05-07T06:40:10;16.35;;;10.93;;
11998;SDS011;40817;51.520;9.954;2023-05-07T06:42:38;14.85;;;10.52;;
11998;SDS011;40817;51.520;9.954;2023-05-07T06:45:09;14.88;;;9.60;;
11998;SDS011;40817;51.520;9.954;2023-05-07T06:47:39;15.10;;;10.20;;
11998;SDS011;40817;51.520;9.954;2023-05-07T06:50:07;16.33;;;10.70;;
11998;SDS011;40817;51.520;9.954;2023-05-07T06:52:35;13.63;;;9.60;;
11998;SDS011;40817;51.520;9.954;2023-05-07T06:55:03;12.23;;;8.43;;
11998;SDS011;40817;51.520;9.954;2023-05-07T06:57:33;12.93;;;8.82;;
11998;SDS011;40817;51.520;9.954;2023-05-07T07:00:00;12.32;;;8.82;;
11998;SDS011;40817;51.520;9.954;2023-05-07T07:02:28;13.02;;;8.57;;
11998;SDS011;40817;51.520;9.954;2023-05-07T07:04:57;11.68;;;8.10;;
11998;SDS011;40817;51.520;9.954;2023-05-07T07:07:24;12.48;;;8.85;;
11998;SDS011;40817;51.520;9.954;2023-05-07T07:09:51;10.48;;;7.35;;
11998;SDS011;40817;51.520;9.954;2023-05-07T07:12:19;11.50;;;7.60;;
11998;SDS011;40817;51.520;9.954;2023-05-07T07:14:50;11.82;;;7.57;;
11998;SDS011;40817;51.520;9.954;2023-05-07T07:17:17;11.15;;;7.38;;
11998;SDS011;40817;51.520;9.954;2023-05-07T07:19:45;11.48;;;7.88;;
11998;SDS011;40817;51.520;9.954;2023-05-07T07:22:14;11.93;;;8.18;;
11998;SDS011;40817;51.520;9.954;2023-05-07T07:24:41;10.23;;;6.93;;
11998;SDS011;40817;51.520;9.954;2023-05-07T07:27:09;11.38;;;7.38;;
11998;SDS011;40817;51.520;9.954;2023-05-07T07:29:36;10.50;;;7.00;;
11998;SDS011;40817;51.520;9.954;2023-05-07T07:32:04;9.82;;;6.68;;
11998;SDS011;40817;51.520;9.954;2023-05-07T07:34:31;10.02;;;6.63;;
11998;SDS011;40817;51.520;9.954;2023-05-07T07:36:59;10.20;;;6.95;;
11998;SDS011;40817;51.520;9.954;2023-05-07T07:39:31;8.52;;;5.80;;
11998;SDS011;40817;51.520;9.954;2023-05-07T07:41:59;8.45;;;6.30;;
11998;SDS011;40817;51.520;9.954;2023-05-07T07:44:27;8.98;;;5.45;;
11998;SDS011;40817;51.520;9.954;2023-05-07T07:46:55;9.48;;;6.07;;
11998;SDS011;40817;51.520;9.954;2023-05-07T07:49:22;8.10;;;4.93;;
11998;SDS011;40817;51.520;9.954;2023-05-07T07:51:50;8.48;;;5.78;;
11998;SDS011;40817;51.520;9.954;2023-05-07T07:54:17;7.50;;;5.55;;
11998;SDS011;40817;51.520;9.954;2023-05-07T07:56:47;8.02;;;5.65;;
11998;SDS011;40817;51.520;9.954;2023-05-07T07:59:14;8.30;;;6.00;;
11998;SDS011;40817;51.520;9.954;2023-05-07T08:01:44;7.97;;;5.50;;
11998;SDS011;40817;51.520;9.954;2023-05-07T08:04:13;9.77;;;6.05;;
11998;SDS011;40817;51.520;9.954;2023-05-07T08:06:41;10.13;;;6.57;;
11998;SDS011;40817;51.520;9.954;2023-05-07T08:09:08;8.90;;;5.38;;
11998;SDS011;40817;51.520;9.954;2023-05-07T08:11:36;8.93;;;5.63;;
11998;SDS011;40817;51.520;9.954;2023-05-07T08:14:05;7.85;;;4.80;;
11998;SDS011;40817;51.520;9.954;2023-05-07T08:16:32;8.98;;;6.05;;
11998;SDS011;40817;51.520;9.954;2023-05-07T08:19:00;8.55;;;6.03;;
11998;SDS011;40817;51.520;9.954;2023-05-07T08:21:27;11.20;;;6.47;;
11998;SDS011;40817;51.520;9.954;2023-05-07T08:23:56;9.23;;;6.25;;
11998;SDS011;40817;51.520;9.954;2023-05-07T08:26:23;8.82;;;6.05;;
11998;SDS011;40817;51.520;9.954;2023-05-07T08:28:51;9.05;;;6.05;;
11998;SDS011;40817;51.520;9.954;2023-05-07T08:31:20;7.90;;;5.30;;
11998;SDS011;40817;51.520;9.954;2023-05-07T08:33:47;8.07;;;5.70;;
11998;SDS011;40817;51.520;9.954;2023-05-07T08:36:16;7.95;;;5.78;;
11998;SDS011;40817;51.520;9.954;2023-05-07T08:38:48;7.70;;;5.45;;
11998;SDS011;40817;51.520;9.954;2023-05-07T08:41:15;9.52;;;5.68;;
11998;SDS011;40817;51.520;9.954;2023-05-07T08:43:43;10.32;;;6.45;;
11998;SDS011;40817;51.520;9.954;2023-05-07T08:46:16;10.18;;;5.63;;
11998;SDS011;40817;51.520;9.954;2023-05-07T08:48:47;10.13;;;5.88;;
11998;SDS011;40817;51.520;9.954;2023-05-07T08:51:16;8.70;;;5.90;;
11998;SDS011;40817;51.520;9.954;2023-05-07T08:53:47;10.00;;;6.13;;
11998;SDS011;40817;51.520;9.954;2023-05-07T08:56:16;9.05;;;5.88;;
11998;SDS011;40817;51.520;9.954;2023-05-07T08:58:45;8.45;;;6.20;;
11998;SDS011;40817;51.520;9.954;2023-05-07T09:01:14;9.40;;;6.45;;
11998;SDS011;40817;51.520;9.954;2023-05-07T09:03:45;9.25;;;6.18;;
11998;SDS011;40817;51.520;9.954;2023-05-07T09:06:13;9.90;;;6.47;;
11998;SDS011;40817;51.520;9.954;2023-05-07T09:08:43;10.00;;;6.60;;
11998;SDS011;40817;51.520;9.954;2023-05-07T09:11:19;9.63;;;7.07;;
11998;SDS011;40817;51.520;9.954;2023-05-07T09:13:48;9.50;;;6.70;;
11998;SDS011;40817;51.520;9.954;2023-05-07T09:16:20;9.80;;;6.88;;
11998;SDS011;40817;51.520;9.954;2023-05-07T09:18:52;10.93;;;7.10;;
11998;SDS011;40817;51.520;9.954;2023-05-07T09:21:21;10.43;;;7.13;;
11998;SDS011;40817;51.520;9.954;2023-05-07T09:23:50;9.43;;;6.75;;
11998;SDS011;40817;51.520;9.954;2023-05-07T09:26:21;9.60;;;6.82;;
11998;SDS011;40817;51.520;9.954;2023-05-07T09:28:49;12.65;;;6.95;;
11998;SDS011;40817;51.520;9.954;2023-05-07T09:31:17;11.07;;;7.72;;
11998;SDS011;40817;51.520;9.954;2023-05-07T09:33:45;10.82;;;7.68;;
11998;SDS011;40817;51.520;9.954;2023-05-07T09:36:14;9.93;;;7.00;;
11998;SDS011;40817;51.520;9.954;2023-05-07T09:38:42;13.27;;;8.95;;
11998;SDS011;40817;51.520;9.954;2023-05-07T09:41:12;12.25;;;8.90;;
11998;SDS011;40817;51.520;9.954;2023-05-07T09:43:53;11.82;;;8.73;;
11998;SDS011;40817;51.520;9.954;2023-05-07T09:46:24;10.80;;;8.18;;
11998;SDS011;40817;51.520;9.954;2023-05-07T09:48:58;12.20;;;8.43;;
11998;SDS011;40817;51.520;9.954;2023-05-07T09:51:30;14.40;;;8.82;;
11998;SDS011;40817;51.520;9.954;2023-05-07T09:54:08;13.32;;;9.32;;
11998;SDS011;40817;51.520;9.954;2023-05-07T09:56:37;11.52;;;9.20;;
11998;SDS011;40817;51.520;9.954;2023-05-07T09:59:07;14.68;;;10.40;;
11998;SDS011;40817;51.520;9.954;2023-05-07T10:01:36;14.27;;;10.93;;
11998;SDS011;40817;51.520;9.954;2023-05-07T10:04:04;14.13;;;10.65;;
11998;SDS011;40817;51.520;9.954;2023-05-07T10:06:35;15.30;;;10.73;;
11998;SDS011;40817;51.520;9.954;2023-05-07T10:09:04;14.50;;;10.95;;
11998;SDS011;40817;51.520;9.954;2023-05-07T10:11:32;15.70;;;11.05;;
11998;SDS011;40817;51.520;9.954;2023-05-07T10:14:01;15.73;;;11.50;;
11998;SDS011;40817;51.520;9.954;2023-05-07T10:16:31;18.77;;;11.63;;
11998;SDS011;40817;51.520;9.954;2023-05-07T10:19:03;15.70;;;11.82;;
11998;SDS011;40817;51.520;9.954;2023-05-07T10:21:33;15.95;;;12.93;;
11998;SDS011;40817;51.520;9.954;2023-05-07T10:24:08;16.95;;;12.80;;
11998;SDS011;40817;51.520;9.954;2023-05-07T10:26:49;17.48;;;12.75;;
11998;SDS011;40817;51.520;9.954;2023-05-07T10:29:21;16.90;;;13.02;;
11998;SDS011;40817;51.520;9.954;2023-05-07T10:32:07;18.55;;;13.27;;
11998;SDS011;40817;51.520;9.954;2023-05-07T10:34:54;17.70;;;13.82;;
11998;SDS011;40817;51.520;9.954;2023-05-07T10:37:28;15.88;;;12.13;;
11998;SDS011;40817;51.520;9.954;2023-05-07T10:39:56;18.42;;;13.65;;
11998;SDS011;40817;51.520;9.954;2023-05-07T10:42:24;18.67;;;13.95;;
11998;SDS011;40817;51.520;9.954;2023-05-07T10:44:52;18.30;;;13.45;;
11998;SDS011;40817;51.520;9.954;2023-05-07T10:47:19;20.55;;;13.73;;
11998;SDS011;40817;51.520;9.954;2023-05-07T10:58:54;16.42;;;13.07;;
11998;SDS011;40817;51.520;9.954;2023-05-07T11:04:21;17.40;;;13.50;;
11998;SDS011;40817;51.520;9.954;2023-05-07T11:07:16;17.95;;;13.90;;
11998;SDS011;40817;51.520;9.954;2023-05-07T11:10:05;18.60;;;12.90;;
11998;SDS011;40817;51.520;9.954;2023-05-07T11:12:50;18.92;;;14.02;;
11998;SDS011;40817;51.520;9.954;2023-05-07T11:15:39;18.88;;;14.10;;
11998;SDS011;40817;51.520;9.954;2023-05-07T11:18:12;18.42;;;13.65;;
11998;SDS011;40817;51.520;9.954;2023-05-07T11:20:45;17.42;;;13.63;;
11998;SDS011;40817;51.520;9.954;2023-05-07T11:29:10;19.73;;;14.48;;
11998;SDS011;40817;51.520;9.954;2023-05-07T11:31:39;18.85;;;13.93;;
11998;SDS011;40817;51.520;9.954;2023-05-07T11:34:07;18.67;;;14.32;;
11998;SDS011;40817;51.520;9.954;2023-05-07T11:36:37;17.95;;;13.52;;
11998;SDS011;40817;51.520;9.954;2023-05-07T11:39:28;18.05;;;14.10;;
11998;SDS011;40817;51.520;9.954;2023-05-07T11:42:00;16.60;;;13.07;;
11998;SDS011;40817;51.520;9.954;2023-05-07T11:44:40;18.45;;;15.20;;
11998;SDS011;40817;51.520;9.954;2023-05-07T11:47:11;17.52;;;13.38;;
11998;SDS011;40817;51.520;9.954;2023-05-07T11:49:46;17.05;;;13.48;;
11998;SDS011;40817;51.520;9.954;2023-05-07T11:52:14;17.55;;;13.23;;
11998;SDS011;40817;51.520;9.954;2023-05-07T11:54:48;17.58;;;14.10;;
11998;SDS011;40817;51.520;9.954;2023-05-07T11:57:17;16.55;;;13.00;;
11998;SDS011;40817;51.520;9.954;2023-05-07T11:59:45;16.27;;;13.07;;
11998;SDS011;40817;51.520;9.954;2023-05-07T12:02:13;16.98;;;13.27;;
11998;SDS011;40817;51.520;9.954;2023-05-07T12:04:42;17.63;;;12.95;;
11998;SDS011;40817;51.520;9.954;2023-05-07T12:07:12;16.52;;;13.20;;
11998;SDS011;40817;51.520;9.954;2023-05-07T12:09:41;17.40;;;13.98;;
11998;SDS011;40817;51.520;9.954;2023-05-07T12:12:10;18.80;;;13.85;;
11998;SDS011;40817;51.520;9.954;2023-05-07T12:14:42;15.57;;;12.90;;
11998;SDS011;40817;51.520;9.954;2023-05-07T12:17:12;15.80;;;12.77;;
11998;SDS011;40817;51.520;9.954;2023-05-07T12:19:41;16.27;;;13.27;;
11998;SDS011;40817;51.520;9.954;2023-05-07T12:22:11;15.75;;;12.68;;
11998;SDS011;40817;51.520;9.954;2023-05-07T12:24:43;18.15;;;12.63;;
11998;SDS011;40817;51.520;9.954;2023-05-07T12:27:12;14.85;;;12.27;;
11998;SDS011;40817;51.520;9.954;2023-05-07T12:29:44;15.20;;;11.88;;
11998;SDS011;40817;51.520;9.954;2023-05-07T12:32:14;14.88;;;12.27;;
11998;SDS011;40817;51.520;9.954;2023-05-07T12:34:42;14.75;;;12.13;;
11998;SDS011;40817;51.520;9.954;2023-05-07T12:37:11;14.93;;;11.90;;
11998;SDS011;40817;51.520;9.954;2023-05-07T12:39:43;14.45;;;11.75;;
11998;SDS011;40817;51.520;9.954;2023-05-07T12:42:14;14.70;;;12.10;;
11998;SDS011;40817;51.520;9.954;2023-05-07T12:44:43;15.50;;;12.48;;
11998;SDS011;40817;51.520;9.954;2023-05-07T12:47:14;15.48;;;12.95;;
11998;SDS011;40817;51.520;9.954;2023-05-07T12:49:42;14.52;;;11.88;;
11998;SDS011;40817;51.520;9.954;2023-05-07T12:52:11;15.15;;;12.82;;
11998;SDS011;40817;51.520;9.954;2023-05-07T12:54:39;15.70;;;12.55;;
11998;SDS011;40817;51.520;9.954;2023-05-07T12:57:07;14.52;;;11.82;;
11998;SDS011;40817;51.520;9.954;2023-05-07T12:59:36;15.93;;;12.60;;
11998;SDS011;40817;51.520;9.954;2023-05-07T13:02:07;14.77;;;12.38;;
11998;SDS011;40817;51.520;9.954;2023-05-07T13:04:35;15.45;;;11.93;;
11998;SDS011;40817;51.520;9.954;2023-05-07T13:07:03;14.45;;;12.10;;
11998;SDS011;40817;51.520;9.954;2023-05-07T13:09:31;13.85;;;11.43;;
11998;SDS011;40817;51.520;9.954;2023-05-07T13:11:59;13.15;;;10.93;;
11998;SDS011;40817;51.520;9.954;2023-05-07T13:14:27;15.07;;;11.55;;
11998;SDS011;40817;51.520;9.954;2023-05-07T13:16:54;13.48;;;10.57;;
11998;SDS011;40817;51.520;9.954;2023-05-07T13:19:23;13.13;;;10.38;;
11998;SDS011;40817;51.520;9.954;2023-05-07T13:21:51;13.35;;;10.85;;
11998;SDS011;40817;51.520;9.954;2023-05-07T13:24:19;12.98;;;10.73;;
11998;SDS011;40817;51.520;9.954;2023-05-07T13:26:46;14.23;;;11.32;;
11998;SDS011;40817;51.520;9.954;2023-05-07T13:29:14;14.05;;;10.65;;
11998;SDS011;40817;51.520;9.954;2023-05-07T13:31:42;13.60;;;10.55;;
11998;SDS011;40817;51.520;9.954;2023-05-07T13:34:09;13.63;;;11.45;;
11998;SDS011;40817;51.520;9.954;2023-05-07T13:36:38;13.10;;;10.27;;
11998;SDS011;40817;51.520;9.954;2023-05-07T13:39:07;12.10;;;10.07;;
11998;SDS011;40817;51.520;9.954;2023-05-07T13:41:35;10.45;;;9.18;;
11998;SDS011;40817;51.520;9.954;2023-05-07T13:44:02;10.85;;;9.20;;
11998;SDS011;40817;51.520;9.954;2023-05-07T13:46:30;11.05;;;9.05;;
11998;SDS011;40817;51.520;9.954;2023-05-07T13:48:58;10.73;;;9.23;;
11998;SDS011;40817;51.520;9.954;2023-05-07T13:51:26;11.32;;;8.85;;
11998;SDS011;40817;51.520;9.954;2023-05-07T13:53:55;11.65;;;8.65;;
11998;SDS011;40817;51.520;9.954;2023-05-07T13:56:23;10.10;;;8.93;;
11998;SDS011;40817;51.520;9.954;2023-05-07T13:58:51;12.00;;;8.73;;
11998;SDS011;40817;51.520;9.954;2023-05-07T14:01:18;10.77;;;9.38;;
11998;SDS011;40817;51.520;9.954;2023-05-07T14:03:46;10.27;;;8.75;;
11998;SDS011;40817;51.520;9.954;2023-05-07T14:06:13;9.55;;;8.48;;
11998;SDS011;40817;51.520;9.954;2023-05-07T14:08:41;10.45;;;8.32;;
11998;SDS011;40817;51.520;9.954;2023-05-07T14:11:10;9.40;;;7.53;;
11998;SDS011;40817;51.520;9.954;2023-05-07T14:13:37;9.70;;;8.23;;
11998;SDS011;40817;51.520;9.954;2023-05-07T14:16:05;10.48;;;8.40;;
11998;SDS011;40817;51.520;9.954;2023-05-07T14:18:33;10.23;;;7.95;;
11998;SDS011;40817;51.520;9.954;2023-05-07T14:21:02;10.23;;;8.55;;
11998;SDS011;40817;51.520;9.954;2023-05-07T14:23:31;9.18;;;8.27;;
11998;SDS011;40817;51.520;9.954;2023-05-07T14:25:59;9.38;;;8.35;;
11998;SDS011;40817;51.520;9.954;2023-05-07T14:28:28;10.00;;;8.55;;
11998;SDS011;40817;51.520;9.954;2023-05-07T14:30:55;10.15;;;8.55;;
11998;SDS011;40817;51.520;9.954;2023-05-07T14:33:23;9.48;;;8.25;;
11998;SDS011;40817;51.520;9.954;2023-05-07T14:35:50;9.30;;;8.30;;
11998;SDS011;40817;51.520;9.954;2023-05-07T14:38:18;8.85;;;7.75;;
11998;SDS011;40817;51.520;9.954;2023-05-07T14:40:45;9.10;;;8.20;;
11998;SDS011;40817;51.520;9.954;2023-05-07T14:43:13;9.60;;;8.35;;
11998;SDS011;40817;51.520;9.954;2023-05-07T14:45:42;9.18;;;8.10;;
11998;SDS011;40817;51.520;9.954;2023-05-07T14:48:10;8.43;;;7.40;;
11998;SDS011;40817;51.520;9.954;2023-05-07T14:50:40;10.98;;;7.13;;
11998;SDS011;40817;51.520;9.954;2023-05-07T14:53:08;7.38;;;6.68;;
11998;SDS011;40817;51.520;9.954;2023-05-07T14:55:35;8.77;;;7.38;;
11998;SDS011;40817;51.520;9.954;2023-05-07T14:58:03;7.80;;;6.72;;